Time;durP1;ratioP1;P1;durP2;ratioP2;P2;SDS_P1;SDS_P2;PMS_P1;PMS_P2;Temp;Humidity;BMP_temperature;BMP_pressure;BME280_temperature;BME280_humidity;BME280_pressure;Samples;Min_cycle;Max_cycle;Signal;HPM_P1;HPM_P2
2023/04/02 00:00:11;;;;;;;2.55;0.40;;;9.80;99.90;;;;;;5096096;28;20476;-81
2023/04/02 00:02:55;;;;;;;0.45;0.43;;;9.80;99.90;;;;;;5095509;28;20035;-81
2023/04/02 00:05:33;;;;;;;1.85;0.43;;;9.80;99.90;;;;;;5095014;28;20120;-81
2023/04/02 00:08:09;;;;;;;1.25;0.35;;;9.70;99.90;;;;;;5095167;28;20063;-79
2023/04/02 00:10:48;;;;;;;1.30;0.40;;;9.70;99.90;;;;;;5095062;28;20177;-82
2023/04/02 00:13:14;;;;;;;1.55;0.40;;;9.70;99.90;;;;;;5111490;28;20042;-82
2023/04/02 00:15:48;;;;;;;0.30;0.20;;;9.60;99.90;;;;;;5095268;28;20024;-82
2023/04/02 00:18:17;;;;;;;0.73;0.30;;;9.60;99.90;;;;;;5095900;28;20032;-82
2023/04/02 00:20:54;;;;;;;0.50;0.30;;;9.60;99.90;;;;;;5095463;28;20052;-81
2023/04/02 00:23:20;;;;;;;1.08;0.28;;;9.60;99.90;;;;;;5096040;28;20020;-81
2023/04/02 00:25:46;;;;;;;1.25;0.20;;;9.60;99.90;;;;;;5095174;28;20036;-81
2023/04/02 00:28:20;;;;;;;2.67;0.40;;;9.60;99.90;;;;;;5095932;28;20082;-83
2023/04/02 00:30:59;;;;;;;3.40;0.30;;;9.60;99.90;;;;;;5095878;28;20036;-80
2023/04/02 00:33:29;;;;;;;0.43;0.30;;;9.60;99.90;;;;;;5095421;28;20032;-80
2023/04/02 00:35:55;;;;;;;2.45;0.38;;;9.60;99.90;;;;;;5094785;28;20115;-82
2023/04/02 00:38:30;;;;;;;1.10;0.30;;;9.60;99.90;;;;;;5095346;28;20038;-81
2023/04/02 00:41:00;;;;;;;1.15;0.35;;;9.60;99.90;;;;;;5095032;28;20028;-82
2023/04/02 00:43:29;;;;;;;0.85;0.45;;;9.60;99.90;;;;;;5094315;28;20107;-81
2023/04/02 00:45:57;;;;;;;0.63;0.32;;;9.60;99.90;;;;;;5094395;28;20035;-79
2023/04/02 00:48:40;;;;;;;0.65;0.40;;;9.60;99.90;;;;;;5094261;28;20108;-80
2023/04/02 00:51:50;;;;;;;0.40;0.40;;;9.50;99.90;;;;;;5095453;28;20078;-80
2023/04/02 00:54:20;;;;;;;0.90;0.30;;;9.60;99.90;;;;;;5035709;28;20055;-80
2023/04/02 00:56:50;;;;;;;1.10;0.25;;;9.50;99.90;;;;;;5052944;28;20473;-80
2023/04/02 00:59:29;;;;;;;1.27;0.40;;;9.50;99.90;;;;;;5035910;28;20481;-81
2023/04/02 01:02:13;;;;;;;0.38;0.28;;;9.50;99.90;;;;;;5036246;28;20025;-80
2023/04/02 01:04:40;;;;;;;2.67;0.40;;;9.60;99.90;;;;;;5036025;28;20124;-80
2023/04/02 01:07:09;;;;;;;0.60;0.30;;;9.60;99.90;;;;;;5035841;28;20037;-79
2023/04/02 01:09:51;;;;;;;1.23;0.22;;;9.60;99.90;;;;;;5035962;28;20183;-80
2023/04/02 01:12:27;;;;;;;;;;;9.60;99.90;;;;;;5035500;28;20037;-80
2023/04/02 01:14:58;;;;;;;0.40;0.30;;;9.60;99.90;;;;;;5052739;28;20416;-79
2023/04/02 01:17:45;;;;;;;0.80;0.40;;;9.60;99.90;;;;;;5051980;28;20033;-80
2023/04/02 01:20:40;;;;;;;0.35;0.20;;;9.60;99.90;;;;;;5052723;28;20021;-80
2023/04/02 01:23:15;;;;;;;0.82;0.30;;;9.60;99.90;;;;;;5035925;28;20469;-80
2023/04/02 01:26:04;;;;;;;0.40;0.28;;;9.60;99.90;;;;;;5083132;28;20032;-81
2023/04/02 01:28:49;;;;;;;1.88;0.30;;;9.60;99.90;;;;;;5092887;28;20059;-80
2023/04/02 01:31:15;;;;;;;0.82;0.20;;;9.60;99.90;;;;;;5110807;28;20158;-79
2023/04/02 01:33:41;;;;;;;1.13;0.22;;;9.60;99.90;;;;;;5110239;28;20035;-80
2023/04/02 01:36:16;;;;;;;0.38;0.28;;;9.50;99.90;;;;;;5093860;28;20473;-79
2023/04/02 01:39:01;;;;;;;1.95;0.40;;;9.50;99.90;;;;;;5093492;28;20039;-80
2023/04/02 01:41:45;;;;;;;2.88;0.30;;;9.50;99.90;;;;;;5092587;28;20081;-80
2023/04/02 01:44:23;;;;;;;0.52;0.20;;;9.40;99.90;;;;;;5093063;28;20020;-80
2023/04/02 01:46:49;;;;;;;0.32;0.30;;;9.40;99.90;;;;;;5093543;28;20177;-80
2023/04/02 01:49:18;;;;;;;0.98;0.20;;;9.40;99.90;;;;;;5093180;28;20078;-80
2023/04/02 01:51:50;;;;;;;0.57;0.28;;;9.40;99.90;;;;;;5093339;28;20421;-80
2023/04/02 01:54:17;;;;;;;4.30;0.30;;;9.40;99.90;;;;;;5093193;28;20019;-79
2023/04/02 01:56:44;;;;;;;0.35;0.30;;;9.40;99.90;;;;;;5093501;28;20043;-80
2023/04/02 01:59:11;;;;;;;0.70;0.40;;;9.40;99.90;;;;;;5092941;28;20032;-80
2023/04/02 02:01:50;;;;;;;1.17;0.40;;;9.40;99.90;;;;;;5093728;28;20024;-79
2023/04/02 02:04:17;;;;;;;1.27;0.30;;;9.50;99.90;;;;;;5092987;28;20125;-80
2023/04/02 02:06:43;;;;;;;1.55;0.22;;;9.50;99.90;;;;;;5092482;28;20024;-80
2023/04/02 02:09:22;;;;;;;0.85;0.40;;;9.50;99.90;;;;;;5092655;28;20415;-80
2023/04/02 02:11:49;;;;;;;3.13;0.30;;;9.50;99.90;;;;;;5092660;28;20020;-80
2023/04/02 02:14:18;;;;;;;0.90;0.40;;;9.50;99.90;;;;;;5093652;28;20024;-79
2023/04/02 02:16:46;;;;;;;2.40;0.40;;;9.50;99.90;;;;;;5093637;28;20027;-80
2023/04/02 02:19:39;;;;;;;0.55;0.40;;;9.50;99.90;;;;;;5092509;28;20614;-80
2023/04/02 02:22:20;;;;;;;1.50;0.40;;;9.50;99.90;;;;;;5091771;28;20040;-80
2023/04/02 02:24:46;;;;;;;1.30;0.55;;;9.50;99.90;;;;;;5092544;28;20025;-80
2023/04/02 02:27:21;;;;;;;0.30;0.30;;;9.40;99.90;;;;;;5093320;28;20055;-80
2023/04/02 02:29:52;;;;;;;0.57;0.30;;;9.40;99.90;;;;;;5092263;28;20162;-80
2023/04/02 02:32:21;;;;;;;0.80;0.45;;;9.50;99.90;;;;;;5092351;28;20035;-80
2023/04/02 02:34:53;;;;;;;1.58;0.40;;;9.50;99.90;;;;;;5092044;28;20028;-80
2023/04/02 02:37:35;;;;;;;0.50;0.30;;;9.50;99.90;;;;;;5093262;28;20094;-80
2023/04/02 02:40:05;;;;;;;0.43;0.30;;;9.50;99.90;;;;;;5092291;28;20115;-80
2023/04/02 02:42:40;;;;;;;0.52;0.40;;;9.50;99.90;;;;;;5091788;28;20465;-80
2023/04/02 02:45:13;;;;;;;1.95;0.40;;;9.50;99.90;;;;;;5092318;28;20120;-80
2023/04/02 02:47:42;;;;;;;0.93;0.40;;;9.50;99.90;;;;;;5091802;28;20127;-81
2023/04/02 02:50:17;;;;;;;0.75;0.40;;;9.50;99.90;;;;;;5093309;28;20099;-80
2023/04/02 02:52:49;;;;;;;0.38;0.30;;;9.50;99.90;;;;;;5091936;28;20052;-81
2023/04/02 02:55:22;;;;;;;0.25;0.22;;;9.50;99.90;;;;;;5092314;28;20031;-80
2023/04/02 02:57:55;;;;;;;0.68;0.30;;;9.50;99.90;;;;;;5091754;28;20041;-81
2023/04/02 03:00:23;;;;;;;2.80;0.30;;;9.40;99.90;;;;;;5109172;28;20056;-82
2023/04/02 03:02:50;;;;;;;4.53;1.17;;;9.40;99.90;;;;;;5092046;28;20043;-80
2023/04/02 03:05:20;;;;;;;3.03;0.50;;;9.40;99.90;;;;;;5092048;28;20077;-80
2023/04/02 03:07:46;;;;;;;0.50;0.40;;;9.40;99.90;;;;;;5091474;28;20028;-80
2023/04/02 03:10:18;;;;;;;1.92;0.50;;;9.40;99.90;;;;;;5092214;28;20063;-82
2023/04/02 03:13:07;;;;;;;0.60;0.35;;;9.40;99.90;;;;;;5091804;28;20024;-82
2023/04/02 03:15:59;;;;;;;2.33;0.47;;;9.40;99.90;;;;;;5091797;28;20062;-81
2023/04/02 03:18:34;;;;;;;;;;;9.40;99.90;;;;;;5092010;28;20035;-82
2023/04/02 03:21:11;;;;;;;0.60;0.30;;;9.40;99.90;;;;;;5092193;28;19962;-82
2023/04/02 03:23:46;;;;;;;1.00;0.50;;;9.40;99.90;;;;;;5091774;28;20119;-81
2023/04/02 03:26:24;;;;;;;1.40;0.50;;;9.40;99.90;;;;;;5093437;28;20028;-81
2023/04/02 03:29:00;;;;;;;1.25;0.60;;;9.40;99.90;;;;;;5092142;28;20048;-81
2023/04/02 03:31:43;;;;;;;2.17;0.55;;;9.40;99.90;;;;;;5091926;28;20467;-82
2023/04/02 03:34:32;;;;;;;1.88;0.70;;;9.30;99.90;;;;;;5092630;28;20483;-79
2023/04/02 03:37:06;;;;;;;1.80;0.75;;;9.30;99.90;;;;;;5097275;28;20027;-81
2023/04/02 03:39:35;;;;;;;0.50;0.50;;;9.30;99.90;;;;;;5095260;28;20492;-81
2023/04/02 03:42:13;;;;;;;1.38;0.63;;;9.30;99.90;;;;;;5096960;28;20024;-81
2023/04/02 03:45:11;;;;;;;0.95;0.85;;;9.30;99.90;;;;;;5095715;28;20024;-82
2023/04/02 03:47:46;;;;;;;2.55;0.55;;;9.40;99.90;;;;;;5093111;28;20123;-80
2023/04/02 03:50:25;;;;;;;1.40;0.85;;;9.40;99.90;;;;;;5095572;28;20048;-79
2023/04/02 03:52:51;;;;;;;2.67;0.77;;;9.40;99.90;;;;;;5090942;28;20117;-79
2023/04/02 03:55:22;;;;;;;1.67;0.60;;;9.40;99.90;;;;;;5091699;28;20029;-79
2023/04/02 03:58:05;;;;;;;0.87;0.60;;;9.40;99.90;;;;;;5090972;28;20068;-80
2023/04/02 04:00:41;;;;;;;2.72;0.80;;;9.40;99.90;;;;;;5073904;28;20028;-79
2023/04/02 04:03:38;;;;;;;1.20;0.60;;;9.40;99.90;;;;;;5091349;28;20028;-79
2023/04/02 04:06:22;;;;;;;1.90;0.73;;;9.40;99.90;;;;;;5091900;28;20055;-81
2023/04/02 04:09:14;;;;;;;0.98;0.50;;;9.40;99.90;;;;;;5074638;28;20166;-80
2023/04/02 04:11:46;;;;;;;1.83;0.88;;;9.40;99.90;;;;;;5063920;28;20036;-81
2023/04/02 04:14:19;;;;;;;1.38;0.80;;;9.40;99.90;;;;;;5091769;28;20064;-81
2023/04/02 04:17:12;;;;;;;2.50;1.00;;;9.40;99.90;;;;;;5091274;28;20081;-80
2023/04/02 04:19:44;;;;;;;2.45;0.80;;;9.40;99.90;;;;;;5075471;28;20028;-80
2023/04/02 04:22:32;;;;;;;2.28;1.02;;;9.40;99.90;;;;;;5074862;28;20028;-80
2023/04/02 04:25:00;;;;;;;1.23;0.70;;;9.40;99.90;;;;;;5091740;28;20029;-80
2023/04/02 04:28:06;;;;;;;2.50;1.00;;;9.30;99.90;;;;;;5090387;28;20485;-81
2023/04/02 04:30:59;;;;;;;1.73;0.57;;;9.30;99.90;;;;;;5051203;28;20033;-80
2023/04/02 04:33:38;;;;;;;1.35;0.80;;;9.30;99.90;;;;;;5074132;28;20055;-80
2023/04/02 04:36:13;;;;;;;2.70;0.88;;;9.30;99.90;;;;;;5075472;28;20115;-81
2023/04/02 04:38:43;;;;;;;1.92;1.00;;;9.30;99.90;;;;;;5074096;28;20036;-81
2023/04/02 04:41:15;;;;;;;3.20;0.80;;;9.30;99.90;;;;;;5091719;28;20025;-82
2023/04/02 04:43:58;;;;;;;3.05;0.80;;;9.40;99.90;;;;;;5090877;28;20115;-80
2023/04/02 04:46:32;;;;;;;2.58;0.88;;;9.40;99.90;;;;;;5074041;28;20429;-79
2023/04/02 04:49:12;;;;;;;3.17;0.63;;;9.40;99.90;;;;;;5074904;28;20491;-80
2023/04/02 04:51:46;;;;;;;3.25;0.80;;;9.40;99.90;;;;;;5090312;28;20363;-79
2023/04/02 04:54:14;;;;;;;2.22;0.63;;;9.40;99.90;;;;;;5090973;28;20024;-79
2023/04/02 04:56:43;;;;;;;4.13;0.73;;;9.40;99.90;;;;;;5090076;28;20090;-80
2023/04/02 04:59:34;;;;;;;1.30;0.60;;;9.40;99.90;;;;;;5073658;28;20378;-79
2023/04/02 05:02:05;;;;;;;1.77;0.82;;;9.40;99.90;;;;;;5090591;28;20469;-80
2023/04/02 05:04:35;;;;;;;2.15;0.70;;;9.40;99.90;;;;;;5090725;28;20035;-81
2023/04/02 05:07:14;;;;;;;5.28;0.90;;;9.40;99.90;;;;;;5090834;28;20078;-81
2023/04/02 05:09:57;;;;;;;2.75;0.70;;;9.40;99.90;;;;;;5074538;28;20044;-80
2023/04/02 05:12:33;;;;;;;1.52;0.80;;;9.40;99.90;;;;;;5073425;28;20048;-81
2023/04/02 05:15:05;;;;;;;1.48;0.88;;;9.40;99.90;;;;;;5090736;28;20020;-81
2023/04/02 05:17:31;;;;;;;;;;;9.50;99.90;;;;;;5073789;28;20078;-81
2023/04/02 05:20:08;;;;;;;2.92;0.73;;;9.40;99.90;;;;;;5090397;28;20345;-81
2023/04/02 05:22:42;;;;;;;2.00;0.80;;;9.40;99.90;;;;;;5090159;28;20350;-81
2023/04/02 05:25:20;;;;;;;7.25;1.25;;;9.50;99.90;;;;;;5090679;28;20028;-81
2023/04/02 05:28:10;;;;;;;2.30;0.80;;;9.50;99.90;;;;;;5072787;28;20140;-81
2023/04/02 05:31:05;;;;;;;1.92;0.80;;;9.40;99.90;;;;;;5090100;28;20480;-81
2023/04/02 05:33:34;;;;;;;1.35;0.55;;;9.40;99.90;;;;;;5052028;28;20048;-82
2023/04/02 05:36:07;;;;;;;1.75;0.80;;;9.50;99.90;;;;;;5074388;28;20032;-81
2023/04/02 05:38:36;;;;;;;2.65;0.95;;;9.40;99.90;;;;;;5072842;28;20378;-82
2023/04/02 05:41:17;;;;;;;0.90;0.73;;;9.50;99.90;;;;;;5090104;28;20028;-81
2023/04/02 05:43:46;;;;;;;1.13;0.70;;;9.50;99.90;;;;;;5072704;28;20016;-80
2023/04/02 05:46:26;;;;;;;3.65;1.10;;;9.50;99.90;;;;;;5089947;28;20032;-79
2023/04/02 05:48:55;;;;;;;2.95;1.08;;;9.50;99.90;;;;;;5089109;28;20392;-80
2023/04/02 05:51:34;;;;;;;1.92;1.00;;;9.50;99.90;;;;;;5089883;28;20025;-80
2023/04/02 05:54:03;;;;;;;3.08;1.02;;;9.50;99.90;;;;;;5074012;28;20017;-80
2023/04/02 05:56:43;;;;;;;2.50;0.90;;;9.50;99.90;;;;;;5072635;28;20052;-80
2023/04/02 05:59:24;;;;;;;1.65;0.80;;;9.50;99.90;;;;;;5089369;28;20035;-80
2023/04/02 06:02:03;;;;;;;2.10;0.80;;;9.50;99.90;;;;;;5073314;28;20024;-80
2023/04/02 06:04:51;;;;;;;2.28;0.93;;;9.60;99.90;;;;;;5089478;28;20028;-80
2023/04/02 06:07:22;;;;;;;3.17;0.90;;;9.60;99.90;;;;;;5072462;28;20063;-79
2023/04/02 06:09:52;;;;;;;1.45;0.90;;;9.50;99.90;;;;;;5072898;28;20025;-80
2023/04/02 06:12:42;;;;;;;2.20;0.88;;;9.60;99.90;;;;;;5089455;28;20465;-80
2023/04/02 06:15:13;;;;;;;1.70;0.75;;;9.50;99.90;;;;;;5073600;28;20082;-79
2023/04/02 06:17:50;;;;;;;2.83;0.90;;;9.60;99.90;;;;;;5088814;28;20082;-80
2023/04/02 06:20:17;;;;;;;2.30;1.10;;;9.60;99.90;;;;;;5089551;28;20123;-80
2023/04/02 06:22:47;;;;;;;1.13;0.80;;;9.60;99.90;;;;;;5074556;28;20099;-81
2023/04/02 06:25:44;;;;;;;2.42;1.23;;;9.60;99.90;;;;;;5091765;28;20035;-79
2023/04/02 06:28:26;;;;;;;2.70;0.90;;;9.70;99.90;;;;;;5093358;28;20060;-80
2023/04/02 06:31:01;;;;;;;2.10;0.80;;;9.70;99.90;;;;;;5095842;28;20036;-80
2023/04/02 06:33:27;;;;;;;3.10;1.10;;;9.70;99.90;;;;;;5091247;28;20036;-80
2023/04/02 06:35:54;;;;;;;1.30;1.00;;;9.70;99.90;;;;;;5090355;28;20275;-80
2023/04/02 06:38:25;;;;;;;1.63;0.80;;;9.70;99.90;;;;;;5091331;28;20031;-80
2023/04/02 06:41:20;;;;;;;2.90;1.15;;;9.70;99.90;;;;;;5090313;28;20016;-79
2023/04/02 06:44:00;;;;;;;2.17;0.82;;;9.70;99.90;;;;;;5085137;28;20059;-80
2023/04/02 06:46:29;;;;;;;1.98;1.20;;;9.70;99.90;;;;;;5091081;28;20020;-79
2023/04/02 06:49:17;;;;;;;2.22;1.10;;;9.80;99.90;;;;;;5091135;28;20050;-80
2023/04/02 06:51:44;;;;;;;7.30;1.10;;;9.80;99.90;;;;;;5092278;28;20449;-80
2023/04/02 06:54:16;;;;;;;3.33;1.02;;;9.70;99.90;;;;;;5093167;28;20020;-81
2023/04/02 06:56:42;;;;;;;;;;;9.70;99.90;;;;;;5092231;28;20033;-80
2023/04/02 06:59:08;;;;;;;1.95;1.15;;;9.80;99.90;;;;;;5093689;28;20260;-79
2023/04/02 07:01:46;;;;;;;1.58;1.10;;;9.90;99.90;;;;;;5095025;28;20077;-84
2023/04/02 07:04:12;;;;;;;1.52;0.98;;;9.80;99.90;;;;;;5095787;28;20020;-81
2023/04/02 07:06:38;;;;;;;2.40;1.05;;;9.90;99.90;;;;;;5095126;28;20031;-82
2023/04/02 07:09:03;;;;;;;1.02;0.90;;;9.90;99.90;;;;;;5095482;28;20477;-80
2023/04/02 07:11:29;;;;;;;1.48;1.15;;;9.90;99.90;;;;;;5100427;28;20065;-80
2023/04/02 07:13:55;;;;;;;3.60;1.20;;;9.90;99.90;;;;;;5100157;28;20024;-81
2023/04/02 07:16:26;;;;;;;4.25;1.35;;;9.90;99.90;;;;;;5101582;28;20024;-80
2023/04/02 07:19:03;;;;;;;1.90;1.17;;;10.00;99.90;;;;;;5099668;28;20024;-80
2023/04/02 07:21:29;;;;;;;1.70;1.10;;;10.10;99.90;;;;;;5100273;28;20457;-79
2023/04/02 07:23:55;;;;;;;2.88;0.93;;;10.10;99.90;;;;;;5098718;28;20376;-80
2023/04/02 07:26:27;;;;;;;3.10;1.10;;;10.10;99.90;;;;;;5099575;28;20468;-79
2023/04/02 07:28:55;;;;;;;2.47;0.95;;;10.10;99.90;;;;;;5097192;28;20082;-80
2023/04/02 07:31:26;;;;;;;3.17;1.00;;;10.20;99.90;;;;;;5098484;28;20028;-80
2023/04/02 07:33:56;;;;;;;2.42;0.90;;;10.10;99.90;;;;;;5091420;28;20449;-81
2023/04/02 07:36:23;;;;;;;1.50;0.80;;;10.20;99.90;;;;;;5114497;28;20036;-80
2023/04/02 07:38:49;;;;;;;2.67;0.63;;;10.20;99.90;;;;;;5097885;28;20035;-81
2023/04/02 07:41:15;;;;;;;3.22;1.58;;;10.30;99.90;;;;;;5096839;28;20028;-82
2023/04/02 07:43:42;;;;;;;2.38;1.00;;;10.30;99.90;;;;;;5092492;28;20016;-81
2023/04/02 07:46:09;;;;;;;2.45;0.80;;;10.30;99.90;;;;;;5096939;28;20031;-81
2023/04/02 07:48:35;;;;;;;2.08;0.90;;;10.30;99.90;;;;;;5094078;28;20039;-80
2023/04/02 07:51:03;;;;;;;4.07;1.05;;;10.40;99.90;;;;;;5094703;28;20024;-81
2023/04/02 07:53:36;;;;;;;1.75;1.00;;;10.40;99.90;;;;;;5094936;28;20024;-80
2023/04/02 07:56:03;;;;;;;2.47;0.93;;;10.40;99.90;;;;;;5094491;28;20039;-84
2023/04/02 07:58:31;;;;;;;1.65;0.93;;;10.40;99.90;;;;;;5094898;28;20042;-80
2023/04/02 08:00:57;;;;;;;1.00;0.70;;;10.50;99.90;;;;;;5094511;28;20195;-80
2023/04/02 08:03:23;;;;;;;2.88;0.98;;;10.50;99.90;;;;;;5093418;28;20024;-82
2023/04/02 08:05:50;;;;;;;2.55;0.88;;;10.60;99.90;;;;;;5093204;28;20361;-83
2023/04/02 08:08:16;;;;;;;1.17;0.90;;;10.60;99.90;;;;;;5094741;28;20125;-81
2023/04/02 08:10:41;;;;;;;1.13;0.85;;;10.60;99.90;;;;;;5095532;28;20507;-83
2023/04/02 08:13:07;;;;;;;1.50;0.90;;;10.70;99.90;;;;;;5086908;28;20032;-86
2023/04/02 08:15:33;;;;;;;1.90;0.63;;;10.80;99.90;;;;;;5093498;28;20020;-80
2023/04/02 08:17:58;;;;;;;3.53;0.73;;;10.70;99.90;;;;;;5095026;28;20464;-82
2023/04/02 08:20:24;;;;;;;1.63;0.60;;;10.80;99.90;;;;;;5095049;28;20031;-83
2023/04/02 08:22:50;;;;;;;2.85;1.00;;;10.80;99.90;;;;;;5094702;28;20020;-79
2023/04/02 08:25:16;;;;;;;0.77;0.60;;;10.90;99.90;;;;;;5094478;28;20035;-81
2023/04/02 08:27:48;;;;;;;1.75;1.17;;;10.80;99.90;;;;;;5093823;28;20135;-82
2023/04/02 08:30:15;;;;;;;1.95;0.80;;;10.80;99.90;;;;;;5094532;28;20024;-80
2023/04/02 08:32:41;;;;;;;2.97;0.88;;;10.80;99.90;;;;;;5094214;28;20487;-82
2023/04/02 08:35:09;;;;;;;1.02;0.65;;;10.80;99.90;;;;;;5094528;28;20024;-81
2023/04/02 08:37:35;;;;;;;1.58;0.70;;;10.90;99.90;;;;;;5094676;28;20084;-81
2023/04/02 08:40:02;;;;;;;1.33;0.63;;;10.80;99.90;;;;;;5093935;28;20115;-82
2023/04/02 08:42:57;;;;;;;0.98;0.60;;;10.90;99.90;;;;;;5094427;28;20024;-81
2023/04/02 08:45:54;;;;;;;1.33;0.70;;;10.90;99.90;;;;;;5094625;28;20032;-82
2023/04/02 08:48:20;;;;;;;1.45;0.50;;;10.90;99.90;;;;;;5093885;28;20119;-80
2023/04/02 08:50:46;;;;;;;1.58;0.90;;;10.90;99.90;;;;;;5095017;28;20059;-81
2023/04/02 08:53:16;;;;;;;2.10;0.90;;;11.00;99.90;;;;;;5094539;28;20079;-81
2023/04/02 08:56:04;;;;;;;1.00;0.63;;;11.00;99.90;;;;;;5094143;28;20039;-82
2023/04/02 08:58:30;;;;;;;0.50;0.50;;;11.00;99.90;;;;;;5095627;28;20043;-81
2023/04/02 09:00:59;;;;;;;1.50;0.70;;;11.10;99.90;;;;;;5093304;28;20028;-81
2023/04/02 09:03:30;;;;;;;1.73;0.70;;;11.20;99.90;;;;;;5093986;28;20028;-81
2023/04/02 09:05:59;;;;;;;2.13;0.60;;;11.20;99.90;;;;;;5093695;28;20035;-81
2023/04/02 09:08:26;;;;;;;1.65;0.60;;;11.30;99.90;;;;;;5093895;28;20032;-80
2023/04/02 09:11:10;;;;;;;1.58;0.52;;;11.30;99.90;;;;;;5093463;28;20028;-81
2023/04/02 09:13:43;;;;;;;0.45;0.43;;;11.30;99.90;;;;;;5094855;28;20024;-80
2023/04/02 09:16:15;;;;;;;0.90;0.55;;;11.30;99.90;;;;;;5094068;28;20028;-80
2023/04/02 09:18:43;;;;;;;0.75;0.50;;;11.30;99.90;;;;;;5093566;28;20032;-81
2023/04/02 09:21:16;;;;;;;2.15;0.68;;;11.30;99.90;;;;;;5093709;28;20055;-80
2023/04/02 09:23:41;;;;;;;3.30;0.63;;;11.30;99.90;;;;;;5093085;28;20024;-82
2023/04/02 09:26:29;;;;;;;1.20;0.60;;;11.30;99.90;;;;;;5094689;28;20024;-80
2023/04/02 09:29:10;;;;;;;2.67;0.52;;;11.30;99.90;;;;;;5092602;28;20083;-80
2023/04/02 09:31:45;;;;;;;0.73;0.43;;;11.30;99.90;;;;;;5093234;28;20473;-80
2023/04/02 09:34:32;;;;;;;2.10;0.55;;;11.30;99.90;;;;;;5092957;28;20024;-80
2023/04/02 09:37:15;;;;;;;1.00;0.50;;;11.40;99.90;;;;;;5092963;28;20035;-80
2023/04/02 09:39:42;;;;;;;0.50;0.40;;;11.40;99.90;;;;;;5093371;28;20043;-80
2023/04/02 09:42:32;;;;;;;2.55;0.60;;;11.40;99.90;;;;;;5093750;28;20173;-80
2023/04/02 09:45:24;;;;;;;1.20;0.57;;;11.40;99.90;;;;;;5092914;28;20028;-81
2023/04/02 09:47:51;;;;;;;0.85;0.40;;;11.40;99.90;;;;;;5092777;28;20465;-80
2023/04/02 09:50:20;;;;;;;1.23;0.40;;;11.50;99.90;;;;;;5093332;28;20376;-81
2023/04/02 09:52:49;;;;;;;0.40;0.40;;;11.50;99.90;;;;;;5092622;28;20055;-82
2023/04/02 09:55:34;;;;;;;1.27;0.60;;;11.50;99.90;;;;;;5093183;28;20028;-81
2023/04/02 09:58:15;;;;;;;0.95;0.50;;;11.40;99.90;;;;;;5092454;28;20032;-80
2023/04/02 10:00:52;;;;;;;0.68;0.50;;;11.40;99.90;;;;;;5093232;28;20028;-81
2023/04/02 10:03:41;;;;;;;0.93;0.43;;;11.40;99.90;;;;;;5093011;28;20016;-81
2023/04/02 10:06:13;;;;;;;2.25;1.13;;;11.40;99.90;;;;;;5091903;28;20024;-81
2023/04/02 10:08:41;;;;;;;1.45;0.55;;;11.40;99.90;;;;;;5092757;28;20040;-81
2023/04/02 10:11:17;;;;;;;1.90;0.70;;;11.40;99.90;;;;;;5092476;28;20122;-80
2023/04/02 10:14:04;;;;;;;0.60;0.60;;;11.50;99.90;;;;;;5092982;28;20032;-81
2023/04/02 10:16:35;;;;;;;0.70;0.40;;;11.50;99.90;;;;;;5093018;28;20024;-80
2023/04/02 10:22:29;;;;;;;0.60;0.50;;;11.60;99.90;;;;;;5083116;28;20090;-80
2023/04/02 10:24:56;;;;;;;1.10;0.60;;;11.70;99.90;;;;;;5093506;28;20028;-81
2023/04/02 10:27:28;;;;;;;2.22;0.75;;;11.80;99.90;;;;;;5092604;28;20087;-81
2023/04/02 10:30:03;;;;;;;0.70;0.50;;;11.80;99.90;;;;;;5092282;28;20020;-81
2023/04/02 10:33:07;;;;;;;1.48;0.80;;;11.80;99.90;;;;;;5092755;28;20036;-81
2023/04/02 10:35:42;;;;;;;2.10;0.52;;;11.90;99.90;;;;;;5075104;28;20096;-81
2023/04/02 10:38:20;;;;;;;0.68;0.50;;;11.90;99.90;;;;;;5073843;28;20075;-81
2023/04/02 10:41:25;;;;;;;1.20;0.70;;;12.00;99.90;;;;;;5074252;28;20052;-81
2023/04/02 10:44:29;;;;;;;1.25;0.70;;;12.10;99.90;;;;;;5042403;28;20093;-81
2023/04/02 10:47:18;;;;;;;1.38;0.50;;;12.10;99.90;;;;;;5055004;28;20171;-82
2023/04/02 10:49:57;;;;;;;1.10;0.70;;;12.20;99.90;;;;;;5055446;28;20033;-81
2023/04/02 10:52:25;;;;;;;20.15;10.32;;;12.30;99.90;;;;;;5055172;28;20124;-81
2023/04/02 10:55:02;;;;;;;3.45;2.53;;;12.40;99.90;;;;;;5011544;28;20049;-85
2023/04/02 10:57:42;;;;;;;2.30;1.27;;;12.40;99.90;;;;;;5032634;28;20540;-84
2023/04/02 11:00:18;;;;;;;2.38;0.82;;;12.50;99.90;;;;;;5034189;28;20025;-85
2023/04/02 11:03:07;;;;;;;0.85;0.60;;;12.60;99.90;;;;;;5026711;28;20124;-86
2023/04/02 11:05:46;;;;;;;0.60;0.43;;;12.60;99.90;;;;;;5018096;28;20034;-83
2023/04/02 11:08:47;;;;;;;1.17;0.95;;;12.70;99.90;;;;;;5017173;28;20077;-84
2023/04/02 11:11:25;;;;;;;2.25;0.50;;;12.70;99.90;;;;;;5054403;28;20029;-85
2023/04/02 11:14:01;;;;;;;0.30;0.20;;;12.70;99.90;;;;;;5049291;28;20134;-84
2023/04/02 11:16:27;;;;;;;0.60;0.30;;;12.70;99.90;;;;;;5073714;28;20036;-82
2023/04/02 11:19:24;;;;;;;2.00;0.30;;;12.80;99.90;;;;;;5072670;28;20134;-82
2023/04/02 11:22:02;;;;;;;0.30;0.20;;;13.00;99.90;;;;;;5058688;28;20123;-82
2023/04/02 11:24:37;;;;;;;0.98;0.30;;;13.00;99.90;;;;;;5094869;28;20027;-82
2023/04/02 11:27:09;;;;;;;1.33;0.35;;;13.20;99.90;;;;;;5095126;28;20059;-82
2023/04/02 11:29:51;;;;;;;3.67;0.43;;;13.40;99.90;;;;;;5094966;28;20055;-81
2023/04/02 11:32:19;;;;;;;1.15;0.20;;;13.60;99.90;;;;;;5094700;28;20028;-83
2023/04/02 11:34:48;;;;;;;0.20;0.20;;;13.70;99.90;;;;;;5096325;28;20026;-83
2023/04/02 11:37:41;;;;;;;0.20;0.20;;;13.80;99.90;;;;;;5095966;28;20107;-83
2023/04/02 11:40:10;;;;;;;0.28;0.20;;;13.80;99.90;;;;;;5094781;28;20076;-83
2023/04/02 11:42:39;;;;;;;0.60;0.40;;;13.90;99.90;;;;;;5094703;28;20109;-83
2023/04/02 11:45:22;;;;;;;0.30;0.30;;;13.90;99.90;;;;;;5093854;28;20465;-82
2023/04/02 11:48:21;;;;;;;0.20;0.20;;;13.90;99.90;;;;;;5093091;28;20472;-83
2023/04/02 11:51:30;;;;;;;0.20;0.20;;;13.90;99.90;;;;;;5094833;28;20035;-83
2023/04/02 11:53:57;;;;;;;0.20;0.20;;;14.00;99.90;;;;;;5091409;28;20093;-83
2023/04/02 11:56:51;;;;;;;0.20;0.20;;;14.00;99.90;;;;;;5093610;28;20366;-83
2023/04/02 11:59:53;;;;;;;0.30;0.20;;;14.10;99.90;;;;;;5094875;28;20039;-83
2023/04/02 12:02:43;;;;;;;0.20;0.20;;;14.20;99.90;;;;;;5096223;28;20443;-84
2023/04/02 12:05:23;;;;;;;0.30;0.30;;;14.30;99.90;;;;;;5095538;28;20036;-84
2023/04/02 12:08:04;;;;;;;1.65;0.45;;;14.30;99.90;;;;;;5094307;28;20056;-84
2023/04/02 12:10:54;;;;;;;1.55;0.43;;;14.10;99.90;;;;;;5094941;28;20020;-82
2023/04/02 12:13:39;;;;;;;0.38;0.30;;;14.00;99.90;;;;;;5095029;28;20514;-83
2023/04/02 12:16:12;;;;;;;0.95;0.38;;;13.80;99.90;;;;;;5094815;28;20025;-83
2023/04/02 12:18:46;;;;;;;0.95;0.47;;;13.60;99.90;;;;;;5095048;28;20024;-83
2023/04/02 12:21:17;;;;;;;0.32;0.32;;;13.50;99.90;;;;;;5093759;28;20036;-83
2023/04/02 12:23:46;;;;;;;0.80;0.47;;;13.40;99.90;;;;;;5095430;28;20491;-81
2023/04/02 12:26:29;;;;;;;0.55;0.40;;;13.30;99.90;;;;;;5088732;28;20099;-82
2023/04/02 12:29:13;;;;;;;1.05;0.60;;;13.10;99.90;;;;;;5094059;28;20127;-84
2023/04/02 12:31:46;;;;;;;1.00;0.70;;;13.00;99.90;;;;;;5094648;28;20730;-83
2023/04/02 12:34:17;;;;;;;0.98;0.75;;;13.00;99.90;;;;;;5078500;28;20016;-83
2023/04/02 12:36:53;;;;;;;1.63;1.23;;;12.90;99.90;;;;;;5092296;28;20031;-83
2023/04/02 12:39:19;;;;;;;1.20;0.93;;;13.00;99.90;;;;;;5095139;28;20453;-82
2023/04/02 12:41:45;;;;;;;1.80;1.00;;;13.00;99.90;;;;;;5093857;28;20031;-81
2023/04/02 12:44:16;;;;;;;1.58;1.20;;;12.90;99.90;;;;;;5095105;28;20381;-81
2023/04/02 12:46:44;;;;;;;2.15;1.15;;;13.00;99.90;;;;;;5094385;28;20024;-81
2023/04/02 12:49:25;;;;;;;1.52;1.30;;;13.10;99.90;;;;;;5093880;28;20063;-81
2023/04/02 12:51:51;;;;;;;2.10;1.60;;;13.10;99.90;;;;;;5094073;28;20031;-82
2023/04/02 12:54:19;;;;;;;1.98;1.58;;;13.20;99.90;;;;;;5111268;28;20457;-81
2023/04/02 12:56:46;;;;;;;1.30;1.20;;;13.40;99.90;;;;;;5091077;28;20520;-81
2023/04/02 12:59:29;;;;;;;1.70;1.50;;;13.30;99.90;;;;;;5093654;28;20063;-82
2023/04/02 13:01:57;;;;;;;2.40;2.20;;;13.20;99.90;;;;;;5092754;28;20031;-81
2023/04/02 13:04:23;;;;;;;2.22;2.03;;;13.20;99.90;;;;;;5092615;28;20380;-82
2023/04/02 13:06:53;;;;;;;2.95;2.17;;;13.40;99.90;;;;;;5090542;28;20032;-82
2023/04/02 13:09:50;;;;;;;2.40;2.20;;;13.50;99.90;;;;;;5092158;28;20125;-80
2023/04/02 13:12:39;;;;;;;1.80;1.70;;;13.20;99.90;;;;;;5088663;28;20032;-81
2023/04/02 13:15:22;;;;;;;2.40;2.20;;;12.80;99.90;;;;;;5091395;28;20061;-80
2023/04/02 13:18:00;;;;;;;2.50;2.30;;;12.60;99.90;;;;;;5085464;28;20151;-86
2023/04/02 13:20:52;;;;;;;2.30;2.10;;;12.50;99.90;;;;;;5090758;28;20080;-85
2023/04/02 13:23:30;;;;;;;3.00;2.53;;;12.40;99.90;;;;;;5069195;28;20044;-83
2023/04/02 13:26:01;;;;;;;2.88;2.40;;;12.20;99.90;;;;;;5093454;28;20027;-83
2023/04/02 13:28:30;;;;;;;3.03;2.47;;;12.20;99.90;;;;;;5077384;28;20055;-84
2023/04/02 13:30:55;;;;;;;3.88;2.45;;;12.20;99.90;;;;;;5093101;28;20032;-85
2023/04/02 13:33:21;;;;;;;3.30;2.45;;;12.10;99.90;;;;;;5110056;28;20020;-83
2023/04/02 13:35:47;;;;;;;3.67;2.55;;;12.00;99.90;;;;;;5094145;28;20032;-83
2023/04/02 13:38:12;;;;;;;2.65;2.45;;;12.00;99.90;;;;;;5089422;28;20229;-84